Time;durP1;ratioP1;P1;durP2;ratioP2;P2;SDS_P1;SDS_P2;PMS_P1;PMS_P2;Temp;Humidity;BMP_temperature;BMP_pressure;BME280_temperature;BME280_humidity;BME280_pressure;Samples;Min_cycle;Max_cycle;Signal;HPM_P1;HPM_P2
2021/08/31 07:24:56;;;;;;;5.45;4.22;;;;;;;15.85;78.93;97650.36;1890198;76;22223;-63
2021/08/31 07:27:23;;;;;;;4.85;3.70;;;;;;;15.93;79.08;97652.17;1842050;76;20991;-60
2021/08/31 07:29:52;;;;;;;3.77;3.30;;;;;;;16.05;79.06;97651.66;1856589;77;20974;-64
2021/08/31 07:32:22;;;;;;;4.37;2.92;;;;;;;16.19;78.47;97655.41;1812318;77;20963;-65
2021/08/31 07:34:50;;;;;;;3.80;2.92;;;;;;;16.30;77.70;97649.23;1851607;77;20932;-61
2021/08/31 07:37:17;;;;;;;3.00;2.72;;;;;;;16.46;77.62;97645.90;1782551;80;20884;-63
2021/08/31 07:39:44;;;;;;;4.05;2.70;;;;;;;16.62;76.91;97648.19;1795134;80;20912;-64
2021/08/31 07:42:12;;;;;;;34.33;4.50;;;;;;;16.74;76.29;97642.23;1794510;80;21058;-61
2021/08/31 07:44:42;;;;;;;4.20;2.10;;;;;;;16.79;75.08;97646.04;1794263;79;20893;-63
2021/08/31 07:47:09;;;;;;;4.03;2.25;;;;;;;16.79;74.21;97641.98;1781119;80;21537;-65
2021/08/31 07:49:36;;;;;;;2.47;1.77;;;;;;;16.78;73.42;97648.53;1781310;80;21026;-62
2021/08/31 07:52:04;;;;;;;4.67;2.05;;;;;;;16.79;73.30;97655.50;1781467;80;21106;-62
2021/08/31 07:54:35;;;;;;;2.33;1.80;;;;;;;16.90;73.12;97645.04;1781550;80;21546;-62
2021/08/31 07:57:04;;;;;;;1.72;1.62;;;;;;;16.99;72.11;97644.34;1784910;80;20849;-67
2021/08/31 07:59:32;;;;;;;1.75;1.40;;;;;;;17.15;71.51;97645.23;1781316;79;20983;-61
2021/08/31 08:02:00;;;;;;;2.90;1.40;;;;;;;17.31;69.04;97648.80;1792269;80;20964;-67
2021/08/31 08:04:29;;;;;;;1.60;1.50;;;;;;;17.47;67.68;97645.63;1782338;80;21525;-65
2021/08/31 08:06:57;;;;;;;1.32;1.22;;;;;;;17.62;68.01;97634.09;1782634;80;21428;-64
2021/08/31 08:09:24;;;;;;;41.85;4.60;;;;;;;17.73;65.95;97629.75;1781609;80;21051;-65
2021/08/31 08:11:53;;;;;;;13.93;3.10;;;;;;;17.85;66.29;97627.58;1785907;80;20931;-62
2021/08/31 08:14:20;;;;;;;4.35;2.00;;;;;;;17.99;66.01;97631.23;1784695;80;21311;-67
2021/08/31 08:16:47;;;;;;;1.30;1.07;;;;;;;18.12;66.19;97636.80;1782619;80;21416;-65
2021/08/31 08:19:14;;;;;;;1.42;1.00;;;;;;;18.18;63.89;97624.58;1782541;80;21170;-65
2021/08/31 08:21:41;;;;;;;21.50;2.55;;;;;;;18.26;63.79;97626.33;1783002;80;20912;-65
2021/08/31 08:24:09;;;;;;;2.62;1.20;;;;;;;18.36;63.73;97625.25;1773601;80;20921;-66
2021/08/31 08:26:36;;;;;;;1.77;1.30;;;;;;;18.48;62.43;97617.63;1738624;80;21004;-67
2021/08/31 08:29:04;;;;;;;1.30;1.05;;;;;;;18.56;62.05;97622.08;1817949;77;21067;-65
2021/08/31 08:31:33;;;;;;;2.90;1.30;;;;;;;18.62;62.03;97631.54;1834565;77;21097;-66
2021/08/31 08:34:03;;;;;;;1.47;1.20;;;;;;;18.65;61.94;97624.06;1843523;76;20963;-64
2021/08/31 08:36:29;;;;;;;1.70;1.20;;;;;;;18.75;61.32;97630.86;1795868;80;20910;-67
2021/08/31 08:38:57;;;;;;;2.50;1.00;;;;;;;18.84;61.82;97629.53;1796334;80;20946;-68
2021/08/31 08:41:23;;;;;;;1.10;0.93;;;;;;;18.91;59.53;97626.98;1844258;77;20895;-66
2021/08/31 08:43:50;;;;;;;1.10;1.00;;;;;;;18.93;59.74;97623.37;1867294;76;21708;-66
2021/08/31 08:46:17;;;;;;;1.75;1.20;;;;;;;18.96;60.36;97630.79;1866853;77;20835;-66
2021/08/31 08:48:46;;;;;;;1.40;0.93;;;;;;;18.92;59.04;97631.28;1839602;77;21399;-66
2021/08/31 08:51:13;;;;;;;1.40;1.20;;;;;;;18.82;59.64;97626.39;1846560;77;21348;-66
2021/08/31 08:53:41;;;;;;;2.30;1.20;;;;;;;18.72;59.92;97632.38;1840088;77;20916;-65
2021/08/31 08:56:08;;;;;;;2.83;1.10;;;;;;;18.63;60.76;97629.03;1820322;78;21822;-66
2021/08/31 08:58:35;;;;;;;2.12;1.00;;;;;;;18.56;60.28;97630.21;1818901;78;20916;-67
2021/08/31 09:01:08;;;;;;;2.55;1.00;;;;;;;18.47;60.36;97624.18;1819036;78;21497;-64
2021/08/31 09:03:37;;;;;;;1.20;1.10;;;;;;;18.42;60.46;97631.19;1825533;77;21048;-66
2021/08/31 09:06:13;;;;;;;0.93;0.85;;;;;;;18.36;60.84;97632.59;1849555;77;21426;-65
2021/08/31 09:08:57;;;;;;;1.25;1.07;;;;;;;18.32;60.85;97620.29;1849801;77;21059;-66
2021/08/31 09:11:32;;;;;;;1.80;1.25;;;;;;;18.35;61.11;97628.30;1831042;77;21371;-65
2021/08/31 09:14:30;;;;;;;1.97;1.10;;;;;;;18.53;61.67;97618.73;1829860;78;20889;-65
2021/08/31 09:17:01;;;;;;;2.90;1.00;;;;;;;18.73;60.56;97611.44;1829832;77;20936;-63
2021/08/31 09:19:37;;;;;;;1.35;0.90;;;;;;;18.85;60.99;97613.48;1849771;77;20863;-68
2021/08/31 09:22:23;;;;;;;4.15;1.15;;;;;;;19.00;60.13;97612.68;1849936;77;21450;-68
2021/08/31 09:25:09;;;;;;;2.83;1.20;;;;;;;19.06;60.25;97605.83;1835282;77;20905;-67
2021/08/31 09:27:42;;;;;;;;;;;;;;;19.04;59.53;97606.75;1818722;78;20911;-62
2021/08/31 09:30:25;;;;;;;3.08;1.32;;;;;;;19.11;59.62;97602.84;1816449;79;20123;-64
2021/08/31 09:33:08;;;;;;;2.75;1.02;;;;;;;19.29;59.29;97609.99;1814987;78;20975;-66
2021/08/31 09:35:43;;;;;;;1.27;1.02;;;;;;;19.54;58.89;97614.06;1814793;78;20959;-64
2021/08/31 09:38:16;;;;;;;4.00;1.00;;;;;;;19.76;58.05;97608.46;1814948;78;21549;-69
2021/08/31 09:40:48;;;;;;;2.92;0.95;;;;;;;19.92;56.79;97615.98;1814937;79;20900;-68
2021/08/31 09:43:20;;;;;;;1.20;0.90;;;;;;;19.96;56.18;97614.11;1815121;79;21051;-67
2021/08/31 09:45:50;;;;;;;1.40;0.95;;;;;;;19.99;56.81;97612.03;1786304;78;21265;-67
2021/08/31 09:48:19;;;;;;;4.33;0.80;;;;;;;20.07;57.52;97609.64;1840174;78;21025;-65
2021/08/31 09:50:50;;;;;;;1.72;0.80;;;;;;;20.21;57.64;97607.17;1839703;78;20921;-68
2021/08/31 09:53:31;;;;;;;2.60;0.80;;;;;;;20.32;56.95;97613.64;1840218;78;20908;-66
2021/08/31 09:56:10;;;;;;;0.80;0.70;;;;;;;20.43;56.30;97609.16;1764986;81;20924;-67
2021/08/31 09:58:43;;;;;;;3.85;0.85;;;;;;;20.44;55.02;97605.27;1766398;81;20956;-71
2021/08/31 10:01:10;;;;;;;1.57;1.00;;;;;;;20.49;56.50;97598.73;1766008;81;21511;-67
2021/08/31 10:03:40;;;;;;;1.20;0.80;;;;;;;20.66;55.83;97598.25;1765657;81;20917;-69
2021/08/31 10:06:07;;;;;;;1.27;0.90;;;;;;;20.78;55.18;97591.81;1766804;81;20925;-65
2021/08/31 10:08:38;;;;;;;2.83;0.98;;;;;;;20.95;54.84;97595.39;1839716;77;20903;-67
2021/08/31 10:11:05;;;;;;;1.20;0.70;;;;;;;21.08;52.41;97585.87;1839253;78;20904;-65
2021/08/31 10:13:37;;;;;;;0.98;0.80;;;;;;;21.10;51.61;97591.76;1838667;78;21111;-69
2021/08/31 10:16:04;;;;;;;3.02;0.98;;;;;;;21.11;52.32;97599.55;1764724;81;21016;-70
2021/08/31 10:18:33;;;;;;;0.65;0.60;;;;;;;21.19;52.02;97599.08;1718503;82;20937;-69
2021/08/31 10:21:11;;;;;;;1.42;0.80;;;;;;;21.19;51.39;97593.63;1748547;82;20962;-66
2021/08/31 10:23:41;;;;;;;0.90;0.80;;;;;;;21.10;51.71;97585.71;1767313;80;21504;-63
2021/08/31 10:26:34;;;;;;;2.05;0.85;;;;;;;20.97;51.16;97590.36;1779075;80;21684;-67
2021/08/31 10:29:21;;;;;;;0.80;0.80;;;;;;;20.86;52.05;97590.78;1779425;80;20935;-70
2021/08/31 10:31:53;;;;;;;3.15;1.55;;;;;;;20.86;52.42;97596.23;1779533;80;21386;-69
2021/08/31 10:34:34;;;;;;;1.20;0.90;;;;;;;20.93;52.81;97592.25;1779226;80;20935;-68
2021/08/31 10:37:15;;;;;;;2.75;0.95;;;;;;;21.10;52.24;97583.59;1777774;80;20930;-67
2021/08/31 10:39:54;;;;;;;1.10;0.80;;;;;;;21.35;52.46;97587.99;1758575;80;21712;-63
2021/08/31 10:42:36;;;;;;;2.80;0.85;;;;;;;21.43;50.43;97590.42;1775982;80;20911;-72
2021/08/31 10:45:14;;;;;;;2.10;0.90;;;;;;;21.39;50.77;97589.60;1771368;80;20910;-66
2021/08/31 10:47:41;;;;;;;1.65;1.47;;;;;;;21.42;49.99;97581.27;1750937;79;20938;-64
2021/08/31 10:50:15;;;;;;;2.02;0.90;;;;;;;21.49;50.28;97588.95;1773853;80;20943;-62
2021/08/31 10:52:52;;;;;;;4.27;0.87;;;;;;;21.53;50.16;97584.33;1779804;80;21091;-65
2021/08/31 10:55:31;;;;;;;1.22;0.80;;;;;;;21.55;48.97;97569.75;1779144;79;20977;-63
2021/08/31 10:58:09;;;;;;;2.47;0.75;;;;;;;21.56;49.18;97575.42;1778812;80;20975;-65
2021/08/31 11:00:46;;;;;;;1.30;0.90;;;;;;;21.60;49.09;97565.34;1779479;80;20915;-65
2021/08/31 11:03:16;;;;;;;1.22;1.00;;;;;;;21.54;47.95;97568.20;1770000;80;20891;-69
2021/08/31 11:05:44;;;;;;;2.15;1.00;;;;;;;21.50;49.04;97578.85;1732227;80;21114;-64
2021/08/31 11:08:13;;;;;;;2.50;1.40;;;;;;;21.55;48.18;97571.11;1779556;80;21023;-67
2021/08/31 11:10:43;;;;;;;3.08;1.00;;;;;;;21.64;48.83;97563.45;1778734;80;21073;-63
2021/08/31 11:13:21;;;;;;;1.55;1.10;;;;;;;21.57;48.09;97563.38;1779488;80;20923;-64
2021/08/31 11:15:47;;;;;;;1.47;1.12;;;;;;;21.32;48.01;97561.48;1779672;80;21516;-65
2021/08/31 11:18:16;;;;;;;1.15;1.05;;;;;;;20.95;48.69;97570.89;1784906;80;21114;-64
2021/08/31 11:20:46;;;;;;;0.80;0.80;;;;;;;20.75;49.07;97566.72;1787507;80;20879;-63
2021/08/31 11:23:19;;;;;;;0.90;0.80;;;;;;;20.59;49.88;97564.13;1787198;80;20922;-65
2021/08/31 11:25:55;;;;;;;1.80;0.98;;;;;;;20.41;49.83;97569.30;1787135;80;21363;-67
2021/08/31 11:28:27;;;;;;;3.22;1.05;;;;;;;20.21;50.99;97557.44;1771313;80;21024;-64
2021/08/31 11:30:58;;;;;;;1.80;1.05;;;;;;;20.08;52.11;97564.22;1755434;81;21079;-69
2021/08/31 11:33:28;;;;;;;0.98;0.82;;;;;;;20.08;52.54;97557.42;1754843;81;21069;-64
2021/08/31 11:35:59;;;;;;;1.72;0.90;;;;;;;20.12;52.39;97563.13;1755014;81;20977;-64
2021/08/31 11:38:38;;;;;;;0.88;0.88;;;;;;;20.25;52.73;97558.34;1765064;80;20945;-63
2021/08/31 11:41:18;;;;;;;3.45;0.93;;;;;;;20.52;51.70;97553.70;1786498;80;20975;-64
2021/08/31 11:43:49;;;;;;;1.82;1.05;;;;;;;20.83;49.98;97554.20;1785922;80;21067;-68
2021/08/31 11:46:30;;;;;;;2.65;1.10;;;;;;;21.14;48.74;97553.09;1791194;78;21026;-72
2021/08/31 11:49:18;;;;;;;1.25;1.00;;;;;;;21.34;47.95;97551.03;1777275;80;21135;-68
2021/08/31 11:52:02;;;;;;;2.02;1.00;;;;;;;21.53;47.48;97548.91;1782719;80;21026;-67
2021/08/31 11:54:50;;;;;;;6.42;1.07;;;;;;;21.75;47.79;97539.03;1780361;80;20977;-64
2021/08/31 11:57:18;;;;;;;2.45;1.20;;;;;;;21.99;47.40;97537.17;1787147;80;21372;-69
2021/08/31 11:59:48;;;;;;;1.37;1.00;;;;;;;22.17;47.10;97541.41;1784412;80;21144;-67
2021/08/31 12:02:23;;;;;;;1.90;1.07;;;;;;;22.35;46.70;97536.91;1787293;80;20918;-64
2021/08/31 12:05:00;;;;;;;4.87;1.10;;;;;;;22.49;46.56;97540.52;1787785;80;20926;-63
2021/08/31 12:07:42;;;;;;;1.85;0.98;;;;;;;22.65;45.62;97541.65;1785171;80;21480;-67
2021/08/31 12:10:12;;;;;;;3.27;1.10;;;;;;;22.82;45.39;97538.23;1755607;80;21301;-62
2021/08/31 12:12:42;;;;;;;1.42;1.05;;;;;;;22.96;43.85;97545.14;1810371;78;21015;-66
2021/08/31 12:15:10;;;;;;;1.20;1.10;;;;;;;23.06;44.56;97528.04;1820013;78;20906;-63
2021/08/31 12:17:47;;;;;;;2.50;1.20;;;;;;;23.27;43.61;97540.25;1814819;78;21323;-67
2021/08/31 12:20:19;;;;;;;1.20;0.90;;;;;;;23.29;42.64;97524.25;1760984;79;20837;-65
2021/08/31 12:22:48;;;;;;;2.52;1.20;;;;;;;22.94;43.69;97539.28;1782048;79;21122;-69
2021/08/31 12:25:18;;;;;;;1.92;1.27;;;;;;;22.69;44.16;97538.35;1777116;79;20877;-68
2021/08/31 12:27:51;;;;;;;1.75;1.00;;;;;;;22.62;44.20;97532.84;1762061;81;20917;-69
2021/08/31 12:30:20;;;;;;;1.42;1.12;;;;;;;22.69;45.37;97527.44;1762153;81;20976;-68
2021/08/31 12:32:55;;;;;;;4.08;1.27;;;;;;;22.88;45.57;97523.08;1762161;81;20976;-64
2021/08/31 12:35:43;;;;;;;2.70;1.12;;;;;;;23.13;44.28;97530.80;1762877;81;21096;-65
2021/08/31 12:38:17;;;;;;;3.75;1.10;;;;;;;22.94;43.02;97523.50;1758007;81;20881;-64
2021/08/31 12:41:04;;;;;;;1.17;1.07;;;;;;;22.41;44.97;97528.56;1762152;81;20881;-66
2021/08/31 12:43:29;;;;;;;1.90;1.20;;;;;;;22.41;45.38;97532.66;1761030;81;20969;-67
2021/08/31 12:46:02;;;;;;;5.42;1.40;;;;;;;22.66;45.00;97533.64;1762455;81;21385;-67
2021/08/31 12:48:39;;;;;;;2.45;1.20;;;;;;;22.86;44.66;97532.80;1762129;81;21077;-65
2021/08/31 12:51:06;;;;;;;2.17;1.20;;;;;;;23.07;44.15;97537.02;1761865;81;21023;-66
2021/08/31 12:53:39;;;;;;;1.10;1.00;;;;;;;23.38;43.56;97533.69;1760930;80;21554;-64
2021/08/31 12:56:15;;;;;;;1.70;1.20;;;;;;;23.53;42.36;97532.56;1760751;80;21548;-65
2021/08/31 12:58:47;;;;;;;1.98;1.15;;;;;;;23.47;42.53;97534.11;1760965;81;21047;-64
2021/08/31 13:01:21;;;;;;;1.95;1.05;;;;;;;23.23;42.44;97525.77;1760647;81;21253;-63
2021/08/31 13:03:52;;;;;;;1.32;1.22;;;;;;;23.23;42.86;97527.14;1760908;80;21557;-63
2021/08/31 13:06:41;;;;;;;1.87;1.27;;;;;;;23.47;42.37;97519.66;1761037;81;21107;-64
2021/08/31 13:09:16;;;;;;;1.40;0.90;;;;;;;23.70;42.54;97520.90;1761666;80;21503;-68
2021/08/31 13:11:44;;;;;;;2.50;1.17;;;;;;;23.64;42.16;97514.84;1776616;79;21006;-64
2021/08/31 13:16:54;;;;;;;4.35;1.10;;;;;;;23.13;43.61;97521.25;1798618;79;20963;-65
2021/08/31 13:19:21;;;;;;;2.12;1.30;;;;;;;22.95;43.63;97516.28;1796583;79;20950;-71
2021/08/31 13:21:49;;;;;;;3.00;1.30;;;;;;;22.98;43.11;97531.13;1796964;79;21423;-65
2021/08/31 13:24:16;;;;;;;1.87;1.40;;;;;;;23.16;43.32;97522.43;1796877;80;20908;-68
2021/08/31 13:26:44;;;;;;;1.57;1.45;;;;;;;23.30;43.66;97514.88;1796988;80;21713;-64
2021/08/31 13:29:11;;;;;;;1.72;1.37;;;;;;;23.54;43.75;97518.31;1796847;79;20908;-65
2021/08/31 13:31:39;;;;;;;3.22;1.10;;;;;;;23.57;43.02;97520.28;1796874;80;20947;-65
2021/08/31 13:34:09;;;;;;;4.20;1.57;;;;;;;23.45;42.65;97515.17;1796872;80;20893;-68
2021/08/31 13:36:37;;;;;;;4.58;1.40;;;;;;;23.17;43.65;97520.48;1796906;79;20901;-68
2021/08/31 13:39:05;;;;;;;2.75;1.40;;;;;;;22.81;44.02;97516.20;1796885;80;21352;-64
2021/08/31 13:41:34;;;;;;;1.52;1.40;;;;;;;22.46;45.11;97511.27;1796818;79;20873;-68
2021/08/31 13:44:02;;;;;;;3.27;1.65;;;;;;;22.19;45.74;97507.14;1796534;80;21042;-68
2021/08/31 13:46:31;;;;;;;3.70;1.50;;;;;;;21.96;46.86;97505.77;1796376;79;20964;-65
2021/08/31 13:49:02;;;;;;;2.08;1.45;;;;;;;21.80;47.33;97508.14;1796262;80;21098;-64
2021/08/31 13:51:29;;;;;;;3.47;1.70;;;;;;;21.77;48.03;97503.43;1797029;79;21062;-65
2021/08/31 13:53:57;;;;;;;2.35;1.60;;;;;;;22.01;48.38;97502.70;1797030;79;21317;-67
2021/08/31 13:56:25;;;;;;;7.03;1.62;;;;;;;22.47;47.26;97499.75;1796828;80;20868;-64
2021/08/31 13:58:52;;;;;;;5.00;2.27;;;;;;;22.95;45.83;97501.84;1796205;79;21054;-63
2021/08/31 14:01:19;;;;;;;2.98;1.32;;;;;;;23.28;46.07;97495.35;1796925;79;20979;-67
2021/08/31 14:03:46;;;;;;;1.47;1.32;;;;;;;23.57;44.83;97497.05;1796779;80;21118;-64
2021/08/31 14:06:13;;;;;;;3.12;1.60;;;;;;;23.87;43.81;97493.40;1793994;79;20944;-58
2021/08/31 14:08:41;;;;;;;1.98;1.40;;;;;;;24.06;42.77;97495.80;1799838;79;20972;-59
2021/08/31 14:11:07;;;;;;;2.70;1.47;;;;;;;24.20;42.65;97488.17;1798903;79;21047;-59
2021/08/31 14:13:36;;;;;;;2.55;1.40;;;;;;;24.39;42.26;97491.88;1799055;78;20986;-58
2021/08/31 14:16:04;;;;;;;1.60;1.20;;;;;;;24.42;41.45;97493.23;1799815;79;21174;-59
2021/08/31 14:18:30;;;;;;;1.62;1.20;;;;;;;24.24;40.32;97481.52;1796068;79;20910;-59
2021/08/31 14:20:59;;;;;;;1.40;1.30;;;;;;;23.97;41.54;97483.06;1790055;79;20980;-59
2021/08/31 14:23:28;;;;;;;1.60;1.30;;;;;;;23.61;42.02;97475.39;1790300;80;21449;-59
2021/08/31 14:25:55;;;;;;;5.85;1.55;;;;;;;23.27;43.08;97476.05;1790112;79;20897;-58
2021/08/31 14:28:23;;;;;;;1.57;1.32;;;;;;;22.95;43.61;97474.53;1793094;79;21769;-59
2021/08/31 14:30:50;;;;;;;1.80;1.40;;;;;;;22.65;44.80;97474.78;1792917;80;21013;-58
2021/08/31 14:33:17;;;;;;;2.70;1.30;;;;;;;22.43;45.48;97479.28;1790106;80;20843;-59
2021/08/31 14:35:46;;;;;;;1.40;1.30;;;;;;;22.42;46.50;97479.67;1790291;80;20925;-59
2021/08/31 14:38:13;;;;;;;4.45;1.70;;;;;;;22.47;45.59;97472.47;1741935;80;21370;-58
2021/08/31 14:40:40;;;;;;;4.50;1.47;;;;;;;22.44;46.34;97478.13;1790387;80;21351;-60
2021/08/31 14:43:07;;;;;;;3.70;1.60;;;;;;;22.67;46.54;97473.81;1790258;80;20930;-61
2021/08/31 14:45:35;;;;;;;2.37;1.47;;;;;;;22.96;44.92;97468.68;1790338;80;20916;-58
2021/08/31 14:48:02;;;;;;;2.27;1.55;;;;;;;23.25;44.58;97472.92;1790144;80;21009;-60
2021/08/31 14:50:29;;;;;;;1.90;1.40;;;;;;;23.45;43.69;97460.52;1790545;80;21052;-61
2021/08/31 14:52:56;;;;;;;1.92;1.72;;;;;;;23.44;44.29;97463.03;1790190;80;21152;-58
2021/08/31 14:55:25;;;;;;;2.55;1.92;;;;;;;23.34;44.22;97464.53;1790293;80;20921;-59
2021/08/31 14:57:52;;;;;;;2.30;1.80;;;;;;;23.19;44.77;97462.16;1790175;80;21001;-60
2021/08/31 15:00:19;;;;;;;4.10;2.00;;;;;;;23.23;45.67;97465.67;1790475;79;21051;-61
2021/08/31 15:02:46;;;;;;;3.95;1.80;;;;;;;23.48;44.17;97465.21;1790327;80;20933;-60
2021/08/31 15:05:14;;;;;;;4.05;2.00;;;;;;;23.58;43.71;97463.06;1790634;79;21248;-59
2021/08/31 15:07:41;;;;;;;3.05;1.75;;;;;;;23.64;43.85;97465.63;1790180;80;20929;-60
2021/08/31 15:10:10;;;;;;;2.17;1.60;;;;;;;23.68;44.97;97466.41;1790476;79;21469;-59
2021/08/31 15:12:37;;;;;;;4.10;1.75;;;;;;;23.76;43.74;97461.92;1790267;80;20922;-59
2021/08/31 15:15:05;;;;;;;2.45;1.52;;;;;;;23.94;43.56;97467.42;1790294;80;20898;-60
2021/08/31 15:17:32;;;;;;;2.15;1.30;;;;;;;23.86;43.21;97456.27;1790093;79;21692;-60
2021/08/31 15:19:59;;;;;;;1.50;1.40;;;;;;;23.69;43.83;97459.78;1813874;79;20967;-60
2021/08/31 15:22:26;;;;;;;1.50;1.40;;;;;;;23.46;44.36;97457.98;1817141;79;21369;-60
2021/08/31 15:24:52;;;;;;;4.00;1.45;;;;;;;23.15;44.03;97463.52;1817670;79;20924;-60
2021/08/31 15:27:22;;;;;;;3.77;1.60;;;;;;;22.82;45.02;97463.16;1817249;79;20928;-60
2021/08/31 15:29:51;;;;;;;2.45;1.35;;;;;;;22.53;45.92;97460.05;1817507;79;21121;-60
2021/08/31 15:32:19;;;;;;;3.98;1.80;;;;;;;22.28;46.39;97463.20;1816911;78;21387;-58
2021/08/31 15:34:46;;;;;;;4.28;1.85;;;;;;;21.98;47.08;97459.82;1817223;79;20899;-58
2021/08/31 15:37:13;;;;;;;1.92;1.52;;;;;;;21.66;48.33;97463.03;1817399;79;21381;-58
2021/08/31 15:39:40;;;;;;;6.05;1.82;;;;;;;21.38;49.40;97464.67;1817224;79;20967;-61
2021/08/31 15:42:07;;;;;;;2.30;1.87;;;;;;;21.13;49.61;97469.83;1817309;79;21078;-61
2021/08/31 15:44:34;;;;;;;2.77;1.80;;;;;;;20.92;51.27;97470.89;1817238;79;20885;-58
2021/08/31 15:47:03;;;;;;;3.10;1.95;;;;;;;20.71;51.43;97470.05;1817448;79;20955;-59
2021/08/31 15:49:30;;;;;;;4.47;1.75;;;;;;;20.52;52.66;97472.09;1817353;79;20916;-59
2021/08/31 15:51:58;;;;;;;3.55;2.02;;;;;;;20.30;52.43;97474.50;1817304;79;20868;-60
2021/08/31 15:54:24;;;;;;;4.45;2.10;;;;;;;20.11;53.15;97469.72;1817422;79;21705;-60
2021/08/31 15:56:52;;;;;;;5.03;2.10;;;;;;;19.94;52.87;97469.63;1817362;79;20963;-62
2021/08/31 15:59:19;;;;;;;3.37;2.15;;;;;;;19.81;53.43;97465.52;1817255;79;20865;-59
2021/08/31 16:01:46;;;;;;;3.25;2.02;;;;;;;19.71;54.09;97462.06;1817585;79;20919;-59
2021/08/31 16:04:13;;;;;;;4.08;2.50;;;;;;;19.61;54.93;97473.52;1817364;79;20908;-58
2021/08/31 16:06:41;;;;;;;2.40;1.95;;;;;;;19.44;54.60;97478.05;1817418;79;20971;-58
2021/08/31 16:09:08;;;;;;;4.53;2.67;;;;;;;19.31;54.25;97476.61;1817377;79;20963;-59
2021/08/31 16:11:36;;;;;;;3.27;2.35;;;;;;;19.15;55.08;97473.20;1817832;79;20892;-61
2021/08/31 16:14:03;;;;;;;3.12;2.37;;;;;;;18.96;55.77;97469.92;1795147;79;20896;-61
2021/08/31 16:16:32;;;;;;;3.87;2.67;;;;;;;18.83;56.57;97471.17;1817356;79;20975;-59
2021/08/31 16:18:58;;;;;;;3.80;2.72;;;;;;;18.70;57.25;97471.10;1811453;79;21117;-58
2021/08/31 16:21:27;;;;;;;3.50;2.60;;;;;;;18.56;57.85;97476.98;1799925;79;20908;-60
2021/08/31 16:23:53;;;;;;;3.87;2.90;;;;;;;18.42;58.73;97477.98;1800100;78;20915;-60
2021/08/31 16:26:21;;;;;;;4.50;2.80;;;;;;;18.28;59.40;97477.10;1800128;78;21024;-60
2021/08/31 16:28:47;;;;;;;3.83;2.52;;;;;;;18.16;59.96;97475.08;1800245;78;20892;-59
2021/08/31 16:31:15;;;;;;;4.87;2.80;;;;;;;18.09;60.32;97479.73;1800132;79;21141;-59
2021/08/31 16:33:42;;;;;;;3.70;2.50;;;;;;;18.01;60.58;97473.95;1799976;79;20912;-60
2021/08/31 16:36:08;;;;;;;4.22;2.58;;;;;;;17.93;60.90;97476.25;1800017;79;20998;-60
2021/08/31 16:38:37;;;;;;;5.40;2.75;;;;;;;17.87;61.22;97483.08;1800203;79;20919;-59
2021/08/31 16:41:07;;;;;;;3.20;2.42;;;;;;;17.84;61.74;97477.00;1782807;79;20907;-61
2021/08/31 16:43:35;;;;;;;4.62;2.40;;;;;;;17.80;62.05;97476.13;1800208;79;21352;-60
2021/08/31 16:46:01;;;;;;;4.83;2.40;;;;;;;17.78;62.54;97479.77;1799955;79;21457;-59
2021/08/31 16:48:30;;;;;;;5.00;2.45;;;;;;;17.75;62.37;97478.53;1800039;79;21007;-60
2021/08/31 16:50:59;;;;;;;3.75;2.67;;;;;;;17.73;62.49;97482.13;1800024;78;21003;-59
2021/08/31 16:53:28;;;;;;;4.03;2.70;;;;;;;17.72;63.56;97478.43;1800016;79;20825;-59
2021/08/31 16:55:54;;;;;;;2.80;2.10;;;;;;;17.71;64.40;97477.64;1800376;78;21092;-59
2021/08/31 16:58:22;;;;;;;6.00;2.52;;;;;;;17.70;64.66;97478.79;1800080;79;20917;-60
2021/08/31 17:00:53;;;;;;;4.47;2.10;;;;;;;17.70;64.80;97481.50;1800053;79;20901;-59
2021/08/31 17:03:20;;;;;;;5.60;3.15;;;;;;;17.71;65.26;97478.23;1799976;79;20884;-59
2021/08/31 17:05:48;;;;;;;9.38;3.65;;;;;;;17.65;65.61;97477.69;1800116;78;21395;-59
2021/08/31 17:08:14;;;;;;;6.35;2.80;;;;;;;17.64;65.89;97476.10;1800056;79;21118;-59
2021/08/31 17:10:42;;;;;;;7.47;2.83;;;;;;;17.62;66.46;97480.29;1799932;79;21531;-59
2021/08/31 17:13:09;;;;;;;7.47;3.00;;;;;;;17.59;67.05;97481.77;1800081;79;20942;-59
2021/08/31 17:15:38;;;;;;;3.77;2.75;;;;;;;17.52;67.89;97489.70;1799886;79;20948;-59
2021/08/31 17:18:06;;;;;;;5.25;2.58;;;;;;;17.47;68.47;97485.89;1800007;79;21288;-59
2021/08/31 17:20:33;;;;;;;2.75;2.47;;;;;;;17.38;68.84;97489.30;1799924;79;21101;-60
2021/08/31 17:23:00;;;;;;;4.53;2.67;;;;;;;17.32;69.35;97490.70;1799920;79;21000;-59
2021/08/31 17:25:27;;;;;;;7.28;4.03;;;;;;;17.32;69.95;97490.70;1800108;79;20908;-60
2021/08/31 17:27:54;;;;;;;5.05;3.12;;;;;;;17.31;70.14;97496.47;1800166;79;21392;-58
2021/08/31 17:30:23;;;;;;;7.55;3.47;;;;;;;17.29;70.03;97496.79;1800506;78;20975;-60
2021/08/31 17:32:51;;;;;;;7.45;3.62;;;;;;;17.26;70.31;97500.20;1782384;79;21272;-59
2021/08/31 17:35:18;;;;;;;8.00;4.25;;;;;;;17.18;70.20;97499.77;1800209;79;20865;-59
2021/08/31 17:37:45;;;;;;;9.03;4.37;;;;;;;17.13;70.63;97504.08;1800081;78;20885;-60
2021/08/31 17:40:14;;;;;;;6.90;4.45;;;;;;;17.08;70.79;97511.08;1800086;78;20936;-60
2021/08/31 17:42:41;;;;;;;5.87;4.10;;;;;;;17.01;70.92;97513.58;1800339;79;20932;-59
2021/08/31 17:45:10;;;;;;;7.78;4.05;;;;;;;16.97;71.01;97511.34;1800129;79;21172;-61
2021/08/31 17:47:37;;;;;;;6.45;3.30;;;;;;;16.95;70.65;97513.05;1800139;79;20860;-58
2021/08/31 17:50:07;;;;;;;3.95;2.55;;;;;;;16.96;69.43;97519.23;1800035;79;21312;-61
2021/08/31 17:52:36;;;;;;;4.20;2.70;;;;;;;17.00;67.29;97520.14;1800245;79;20900;-59
2021/08/31 17:55:08;;;;;;;4.85;2.60;;;;;;;17.05;66.63;97514.49;1800089;78;20924;-61
2021/08/31 17:57:33;;;;;;;5.65;2.77;;;;;;;17.11;65.90;97517.16;1800180;79;20904;-59
2021/08/31 18:00:02;;;;;;;4.87;2.55;;;;;;;17.15;65.34;97521.31;1799930;78;21419;-59
2021/08/31 18:02:28;;;;;;;3.52;2.52;;;;;;;17.15;64.90;97520.75;1799954;79;20959;-60
2021/08/31 18:04:55;;;;;;;3.70;2.58;;;;;;;17.13;64.56;97515.45;1799932;78;20916;-63
2021/08/31 18:07:22;;;;;;;6.28;2.30;;;;;;;17.10;64.37;97517.72;1800052;79;20936;-61
2021/08/31 18:09:48;;;;;;;4.08;2.52;;;;;;;17.09;64.12;97515.38;1799951;79;21122;-61
2021/08/31 18:12:17;;;;;;;5.90;2.40;;;;;;;17.08;64.00;97517.84;1799903;79;20833;-61
2021/08/31 18:14:44;;;;;;;2.75;2.50;;;;;;;17.07;64.21;97520.34;1799972;79;20860;-61
2021/08/31 18:17:12;;;;;;;3.60;2.35;;;;;;;17.02;64.38;97518.67;1799870;78;20983;-60
2021/08/31 18:19:39;;;;;;;5.70;2.52;;;;;;;16.96;63.84;97513.81;1806270;79;21024;-62
2021/08/31 18:22:06;;;;;;;3.67;2.33;;;;;;;16.92;63.82;97516.99;1817274;79;21109;-59
2021/08/31 18:24:33;;;;;;;4.60;2.60;;;;;;;16.90;64.10;97517.34;1817250;79;21426;-59
2021/08/31 18:26:59;;;;;;;2.17;1.98;;;;;;;16.90;63.99;97520.61;1817296;79;20912;-60
2021/08/31 18:29:26;;;;;;;3.35;2.30;;;;;;;16.90;63.82;97521.96;1817488;79;20931;-61
2021/08/31 18:31:53;;;;;;;3.27;2.25;;;;;;;16.86;63.67;97517.02;1817373;79;20916;-58
